Time;durP1;ratioP1;P1;durP2;ratioP2;P2;SDS_P1;SDS_P2;PMS_P1;PMS_P2;Temp;Humidity;BMP_temperature;BMP_pressure;BME280_temperature;BME280_humidity;BME280_pressure;Samples;Min_cycle;Max_cycle;Signal;HPM_P1;HPM_P2
2022/02/15 00:01:34;;;;;;;1.77;1.67;;;7.80;99.90;;;;;;5063901;28;20386;-80
2022/02/15 00:04:19;;;;;;;3.70;2.20;;;7.80;99.90;;;;;;5064931;28;20453;-80
2022/02/15 00:07:03;;;;;;;2.00;1.60;;;7.80;99.90;;;;;;5065396;28;20481;-80
2022/02/15 00:09:48;;;;;;;3.10;2.23;;;7.70;99.90;;;;;;5065549;28;20444;-81
2022/02/15 00:12:32;;;;;;;2.37;2.17;;;7.70;99.90;;;;;;5065371;28;20389;-80
2022/02/15 00:15:19;;;;;;;2.33;2.17;;;7.70;99.90;;;;;;5067622;28;20394;-80
2022/02/15 00:18:03;;;;;;;3.10;2.23;;;7.60;99.90;;;;;;5067158;28;20389;-81
2022/02/15 00:20:49;;;;;;;2.20;2.00;;;7.70;99.90;;;;;;5066266;28;20404;-81
2022/02/15 00:23:33;;;;;;;4.27;2.27;;;7.60;99.90;;;;;;5064950;28;20469;-81
2022/02/15 00:26:18;;;;;;;3.13;2.47;;;7.60;99.90;;;;;;5065829;28;20513;-81
2022/02/15 00:29:04;;;;;;;3.10;2.30;;;7.70;99.90;;;;;;5051989;28;20432;-80
2022/02/15 00:31:48;;;;;;;4.73;2.70;;;7.70;99.90;;;;;;5066456;28;20417;-80
2022/02/15 00:34:34;;;;;;;3.27;2.40;;;7.70;99.90;;;;;;5065109;28;20390;-80
2022/02/15 00:37:19;;;;;;;4.37;2.80;;;7.60;99.90;;;;;;5063616;28;20398;-80
2022/02/15 00:40:05;;;;;;;5.13;4.03;;;7.70;99.90;;;;;;5063122;28;20456;-80
2022/02/15 00:42:49;;;;;;;5.60;3.80;;;7.60;99.90;;;;;;5062961;28;20789;-81
2022/02/15 00:45:35;;;;;;;6.53;3.93;;;7.50;99.90;;;;;;5048364;28;20488;-81
2022/02/15 00:48:20;;;;;;;2.40;2.13;;;7.50;99.90;;;;;;5048216;28;20413;-81
2022/02/15 00:51:04;;;;;;;3.23;2.90;;;7.50;99.90;;;;;;5062113;28;20414;-80
2022/02/15 00:53:48;;;;;;;3.73;3.17;;;7.70;99.90;;;;;;5062818;28;20413;-81
2022/02/15 00:56:32;;;;;;;4.03;2.63;;;7.70;99.90;;;;;;5062883;28;20532;-80
2022/02/15 00:59:17;;;;;;;2.23;2.03;;;7.80;99.90;;;;;;5063690;28;20389;-81
2022/02/15 01:02:02;;;;;;;8.17;3.33;;;7.70;99.90;;;;;;5064106;28;20468;-81
2022/02/15 01:04:47;;;;;;;3.73;2.87;;;7.70;99.90;;;;;;5063659;28;20828;-81
2022/02/15 01:07:32;;;;;;;4.07;2.63;;;7.70;99.90;;;;;;5063098;28;20521;-81
2022/02/15 01:10:16;;;;;;;6.70;2.70;;;7.70;99.90;;;;;;5064630;28;20397;-81
2022/02/15 01:13:01;;;;;;;7.63;3.73;;;7.60;99.90;;;;;;5065284;28;20402;-81
2022/02/15 01:15:46;;;;;;;4.07;3.67;;;7.60;99.90;;;;;;5071013;28;20420;-78
2022/02/15 01:18:30;;;;;;;3.50;3.20;;;7.60;99.90;;;;;;5070454;28;20901;-78
2022/02/15 01:21:15;;;;;;;3.60;3.30;;;7.70;99.90;;;;;;5071037;28;20401;-79
2022/02/15 01:24:01;;;;;;;3.20;2.80;;;7.70;99.90;;;;;;5064970;28;20390;-80
2022/02/15 01:26:45;;;;;;;7.50;3.00;;;7.60;99.90;;;;;;5063830;28;20444;-81
2022/02/15 01:29:30;;;;;;;3.40;3.10;;;7.60;99.90;;;;;;5063987;28;20385;-80
2022/02/15 01:32:14;;;;;;;3.43;2.93;;;7.50;99.90;;;;;;5063753;28;20378;-80
2022/02/15 01:34:59;;;;;;;3.40;3.10;;;7.50;99.90;;;;;;5063546;28;20424;-81
2022/02/15 01:37:44;;;;;;;3.90;3.20;;;7.40;99.90;;;;;;5064009;28;20386;-81
2022/02/15 01:40:28;;;;;;;3.60;3.20;;;7.50;99.90;;;;;;5063404;28;20402;-81
2022/02/15 01:43:14;;;;;;;3.40;3.10;;;7.40;99.90;;;;;;5064298;28;20386;-80
2022/02/15 01:45:58;;;;;;;4.70;3.20;;;7.50;99.90;;;;;;5064019;28;20444;-81
2022/02/15 01:48:46;;;;;;;3.87;3.23;;;7.50;99.90;;;;;;5062804;28;20408;-81
2022/02/15 01:51:31;;;;;;;3.20;2.77;;;7.60;99.90;;;;;;5063670;28;20378;-81
2022/02/15 01:54:16;;;;;;;3.60;3.30;;;7.60;99.90;;;;;;5064099;28;20409;-81
2022/02/15 01:57:00;;;;;;;3.80;3.50;;;7.70;99.90;;;;;;5049669;28;20387;-81
2022/02/15 01:59:45;;;;;;;12.03;3.27;;;7.70;99.90;;;;;;5064133;28;20432;-81
2022/02/15 02:02:30;;;;;;;11.13;3.70;;;7.80;99.90;;;;;;5064307;28;20863;-81
2022/02/15 02:08:13;;;;;;;5.17;3.43;;;7.60;99.90;;;;;;5064918;28;20385;-81
2022/02/15 02:11:00;;;;;;;5.17;4.00;;;7.50;99.90;;;;;;5065196;28;20390;-81
2022/02/15 02:13:45;;;;;;;4.60;3.60;;;7.40;99.90;;;;;;5075077;28;20474;-79
2022/02/15 02:16:32;;;;;;;3.70;3.40;;;7.30;99.90;;;;;;5078361;28;20389;-79
2022/02/15 02:19:16;;;;;;;13.13;3.67;;;7.30;99.90;;;;;;5078413;28;20409;-81
2022/02/15 02:22:01;;;;;;;4.60;3.40;;;7.30;99.90;;;;;;5078170;28;20445;-81
2022/02/15 02:24:45;;;;;;;5.57;3.80;;;7.30;99.90;;;;;;5064939;28;20394;-81
2022/02/15 02:27:33;;;;;;;5.60;4.07;;;7.20;99.90;;;;;;5063513;28;20429;-81
2022/02/15 02:30:18;;;;;;;2.63;2.43;;;7.20;99.90;;;;;;5062876;28;20386;-79
2022/02/15 02:33:03;;;;;;;3.57;3.27;;;7.20;99.90;;;;;;5063428;28;20390;-80
2022/02/15 02:35:58;;;;;;;3.30;2.87;;;7.10;99.90;;;;;;5061691;28;20421;-80
2022/02/15 02:38:43;;;;;;;3.90;3.07;;;7.10;99.90;;;;;;5062658;28;20436;-81
2022/02/15 02:41:27;;;;;;;3.70;3.40;;;6.90;99.90;;;;;;5061483;28;20385;-81
2022/02/15 02:44:12;;;;;;;3.90;3.23;;;6.80;99.90;;;;;;5062867;28;20709;-81
2022/02/15 02:46:57;;;;;;;6.07;4.40;;;6.90;99.90;;;;;;5063061;28;20988;-81
2022/02/15 02:49:41;;;;;;;4.53;4.07;;;6.80;99.90;;;;;;5062801;28;20409;-81
2022/02/15 02:52:25;;;;;;;4.20;3.50;;;6.70;99.90;;;;;;5062241;28;20532;-81
2022/02/15 02:55:11;;;;;;;4.67;4.23;;;6.70;99.90;;;;;;5061627;28;20389;-81
2022/02/15 02:57:56;;;;;;;3.30;3.00;;;6.70;99.90;;;;;;5062817;28;20406;-81
2022/02/15 03:00:41;;;;;;;5.10;3.87;;;6.70;99.90;;;;;;5063037;28;20436;-81
2022/02/15 03:03:25;;;;;;;6.70;4.90;;;6.60;99.90;;;;;;5061763;28;20444;-81
2022/02/15 03:06:10;;;;;;;6.50;5.10;;;6.70;99.90;;;;;;5063014;28;20444;-81
2022/02/15 03:08:55;;;;;;;5.30;4.80;;;6.70;99.90;;;;;;5061596;28;20382;-81
2022/02/15 03:11:40;;;;;;;5.50;4.73;;;6.60;99.90;;;;;;5063136;28;20443;-81
2022/02/15 03:14:24;;;;;;;10.03;5.50;;;6.70;99.90;;;;;;5064519;28;20385;-79
2022/02/15 03:17:09;;;;;;;7.30;6.13;;;6.70;99.90;;;;;;5063563;28;20385;-81
2022/02/15 03:19:54;;;;;;;15.20;6.13;;;6.70;99.90;;;;;;5062399;28;20378;-81
2022/02/15 03:22:38;;;;;;;7.30;4.67;;;6.70;99.90;;;;;;5062676;28;20560;-81
2022/02/15 03:25:24;;;;;;;5.43;4.43;;;6.70;99.90;;;;;;5061051;28;20444;-81
2022/02/15 03:28:09;;;;;;;9.50;6.30;;;6.60;99.90;;;;;;5065222;28;20389;-81
2022/02/15 03:30:53;;;;;;;6.93;5.70;;;6.70;99.90;;;;;;5066193;28;20385;-81
2022/02/15 03:33:38;;;;;;;7.63;6.23;;;6.60;99.90;;;;;;5065628;28;20421;-80
2022/02/15 03:36:23;;;;;;;8.10;5.50;;;6.60;99.90;;;;;;5066352;28;20394;-80
2022/02/15 03:39:09;;;;;;;6.27;4.60;;;6.70;99.90;;;;;;5066160;28;20405;-81
2022/02/15 03:44:49;;;;;;;6.97;6.00;;;6.70;99.90;;;;;;5066117;28;20386;-81
2022/02/15 03:47:34;;;;;;;7.97;6.70;;;6.80;99.90;;;;;;5066171;28;20449;-80
2022/02/15 03:50:19;;;;;;;8.73;6.80;;;6.90;99.90;;;;;;5075106;28;20382;-79
2022/02/15 03:53:04;;;;;;;7.47;5.03;;;7.00;99.90;;;;;;5073291;28;20389;-79
2022/02/15 03:55:51;;;;;;;9.43;5.90;;;7.00;99.90;;;;;;5075269;28;20409;-79
2022/02/15 03:58:36;;;;;;;7.50;6.10;;;7.10;99.90;;;;;;5074809;28;20401;-80
2022/02/15 04:01:21;;;;;;;6.40;5.63;;;7.00;99.90;;;;;;5073239;28;20409;-79
2022/02/15 04:04:06;;;;;;;7.80;5.30;;;7.20;99.90;;;;;;5073009;28;20518;-81
2022/02/15 04:06:51;;;;;;;8.27;6.30;;;7.00;99.90;;;;;;5068809;28;20441;-80
2022/02/15 04:09:36;;;;;;;8.60;6.33;;;7.10;99.90;;;;;;5073536;28;20436;-78
2022/02/15 04:12:20;;;;;;;6.60;5.47;;;7.00;99.90;;;;;;5074327;28;20389;-78
2022/02/15 04:15:05;;;;;;;8.70;5.70;;;7.00;99.90;;;;;;5073979;28;20382;-79
2022/02/15 04:17:50;;;;;;;9.37;6.10;;;7.10;99.90;;;;;;5073522;28;20385;-80
2022/02/15 04:20:35;;;;;;;6.07;5.47;;;7.20;99.90;;;;;;5067001;28;20416;-81
2022/02/15 04:23:19;;;;;;;7.30;4.87;;;7.30;99.90;;;;;;5064508;28;20472;-80
2022/02/15 04:26:04;;;;;;;6.67;5.17;;;7.20;99.90;;;;;;5065583;28;20445;-80
2022/02/15 04:28:48;;;;;;;6.73;6.10;;;7.30;99.90;;;;;;5062214;28;20437;-82
2022/02/15 04:31:33;;;;;;;7.93;6.30;;;7.20;99.90;;;;;;5060087;28;20389;-81
2022/02/15 04:34:17;;;;;;;6.87;5.03;;;7.20;99.90;;;;;;5059966;28;20382;-81
2022/02/15 04:37:02;;;;;;;7.00;5.37;;;7.30;99.90;;;;;;5060220;28;20433;-82
2022/02/15 04:39:47;;;;;;;7.37;6.23;;;7.10;99.90;;;;;;5099405;28;20895;-81
2022/02/15 04:42:32;;;;;;;7.87;6.13;;;7.00;99.90;;;;;;5100167;28;20396;-81
2022/02/15 04:45:17;;;;;;;9.23;6.40;;;6.80;99.90;;;;;;5100471;28;20407;-81
2022/02/15 04:48:02;;;;;;;6.33;5.30;;;6.80;99.90;;;;;;5104435;28;20399;-81
2022/02/15 04:50:46;;;;;;;8.40;5.33;;;6.70;99.90;;;;;;5105574;28;20375;-81
2022/02/15 04:53:30;;;;;;;8.10;6.57;;;6.70;99.90;;;;;;5115116;28;20463;-79
2022/02/15 04:56:15;;;;;;;6.03;4.90;;;6.60;99.90;;;;;;5132103;28;20388;-80
2022/02/15 04:59:00;;;;;;;7.53;6.73;;;6.70;99.90;;;;;;5125047;28;20409;-80
2022/02/15 05:01:44;;;;;;;8.47;6.23;;;6.80;99.90;;;;;;5121404;28;20387;-81
2022/02/15 05:07:35;;;;;;;8.10;6.33;;;6.60;99.90;;;;;;5120209;28;20530;-81
2022/02/15 05:10:19;;;;;;;9.30;6.10;;;6.60;99.90;;;;;;5120291;28;20386;-82
2022/02/15 05:13:09;;;;;;;12.13;7.70;;;6.50;99.90;;;;;;5120416;28;20441;-81
2022/02/15 05:15:54;;;;;;;8.60;6.20;;;6.40;99.90;;;;;;5122142;28;20509;-79
2022/02/15 05:18:39;;;;;;;8.67;6.00;;;6.30;99.90;;;;;;5133566;28;20741;-80
2022/02/15 05:21:44;;;;;;;9.03;6.40;;;6.20;99.90;;;;;;5132037;28;20437;-79
2022/02/15 05:24:30;;;;;;;9.50;6.30;;;6.10;99.90;;;;;;5069455;28;20428;-82
2022/02/15 05:27:15;;;;;;;7.07;5.50;;;6.10;99.90;;;;;;5076690;28;20444;-81
2022/02/15 05:29:59;;;;;;;10.10;6.47;;;6.00;99.90;;;;;;5076846;28;20397;-80
2022/02/15 05:32:45;;;;;;;10.83;5.47;;;5.90;99.90;;;;;;5077617;28;20397;-81
2022/02/15 05:35:30;;;;;;;11.00;6.23;;;5.90;99.90;;;;;;5077232;28;20407;-81
2022/02/15 05:38:14;;;;;;;7.00;6.30;;;5.90;99.90;;;;;;5076748;28;20463;-81
2022/02/15 05:40:59;;;;;;;9.63;6.57;;;5.90;99.90;;;;;;5076531;28;20388;-81
2022/02/15 05:43:43;;;;;;;7.87;6.57;;;5.90;99.90;;;;;;5081222;28;20433;-80
2022/02/15 05:46:28;;;;;;;10.67;6.00;;;5.90;99.90;;;;;;5088339;28;20568;-80
2022/02/15 05:49:12;;;;;;;12.10;8.13;;;5.80;99.90;;;;;;5085816;28;20539;-80
2022/02/15 05:51:57;;;;;;;8.20;6.33;;;5.80;99.90;;;;;;5086544;28;20389;-80
2022/02/15 05:54:43;;;;;;;14.50;7.43;;;5.80;99.90;;;;;;5081706;28;20882;-81
2022/02/15 05:57:28;;;;;;;5.23;4.73;;;5.80;99.90;;;;;;5112196;28;20434;-81
2022/02/15 06:00:15;;;;;;;6.77;5.50;;;5.80;99.90;;;;;;5103959;28;20395;-81
2022/02/15 06:03:00;;;;;;;14.47;7.30;;;5.80;99.90;;;;;;5119841;28;20387;-81
2022/02/15 06:05:44;;;;;;;11.00;6.50;;;5.90;99.90;;;;;;5119574;28;20450;-81
2022/02/15 06:08:28;;;;;;;11.00;7.10;;;5.90;99.90;;;;;;5119866;28;20422;-81
2022/02/15 06:11:13;;;;;;;13.40;7.40;;;5.90;99.90;;;;;;5107060;28;20432;-81
2022/02/15 06:14:17;;;;;;;8.57;6.77;;;5.90;99.90;;;;;;5118817;27;20449;-81
2022/02/15 06:17:08;;;;;;;8.10;5.47;;;5.80;99.90;;;;;;5081125;28;20404;-81
2022/02/15 06:19:52;;;;;;;9.00;6.10;;;5.80;99.90;;;;;;5066101;28;20463;-80
2022/02/15 06:22:37;;;;;;;12.63;7.40;;;5.70;99.90;;;;;;5081321;28;20463;-80
2022/02/15 06:25:21;;;;;;;9.57;5.70;;;5.80;99.90;;;;;;5079486;28;20404;-81
2022/02/15 06:28:06;;;;;;;10.33;6.03;;;5.80;99.90;;;;;;5076647;28;20372;-80
2022/02/15 06:30:51;;;;;;;7.40;6.43;;;5.80;99.90;;;;;;5077245;28;20397;-81
2022/02/15 06:33:35;;;;;;;13.00;6.53;;;5.80;99.90;;;;;;5075948;28;20400;-81
2022/02/15 06:36:19;;;;;;;8.50;5.63;;;5.80;99.90;;;;;;5076312;28;20894;-80
2022/02/15 06:39:09;;;;;;;6.93;5.90;;;6.00;99.90;;;;;;5061896;28;20443;-81
2022/02/15 06:41:55;;;;;;;10.90;6.10;;;5.90;99.90;;;;;;5076137;28;20400;-81
2022/02/15 06:44:58;;;;;;;9.30;6.70;;;5.90;99.90;;;;;;5056941;28;20701;-82
2022/02/15 06:48:02;;;;;;;7.13;5.77;;;5.90;99.90;;;;;;5082432;28;20454;-82
2022/02/15 06:50:47;;;;;;;8.40;5.10;;;5.80;99.90;;;;;;5077418;28;20416;-81
2022/02/15 06:53:33;;;;;;;8.27;5.47;;;5.90;99.90;;;;;;5058622;28;20430;-81
2022/02/15 06:56:18;;;;;;;7.67;6.10;;;5.90;99.90;;;;;;5063463;28;20470;-81
2022/02/15 06:59:02;;;;;;;9.43;6.30;;;5.90;99.90;;;;;;5067285;28;20412;-81
2022/02/15 07:01:47;;;;;;;6.40;5.80;;;5.90;99.90;;;;;;5042572;28;20375;-81
2022/02/15 07:04:51;;;;;;;5.83;5.20;;;5.90;99.90;;;;;;5035948;28;20566;-81
2022/02/15 07:07:36;;;;;;;9.20;6.20;;;5.90;99.90;;;;;;5016925;28;20512;-81
2022/02/15 07:10:20;;;;;;;9.80;6.67;;;6.00;99.90;;;;;;4990899;28;20424;-81
2022/02/15 07:13:05;;;;;;;8.20;7.03;;;6.10;99.90;;;;;;5009215;28;20390;-81
2022/02/15 07:15:49;;;;;;;9.07;5.90;;;6.10;99.90;;;;;;5001734;28;20459;-80
2022/02/15 07:18:34;;;;;;;7.80;5.67;;;6.10;99.90;;;;;;5014004;28;20605;-81
2022/02/15 07:21:19;;;;;;;7.63;6.40;;;6.20;99.90;;;;;;5031280;28;20410;-81
2022/02/15 07:24:04;;;;;;;12.40;7.00;;;6.10;99.90;;;;;;5043628;28;20493;-81
2022/02/15 07:26:48;;;;;;;7.63;5.37;;;6.00;99.90;;;;;;5042265;28;20452;-81
2022/02/15 07:29:33;;;;;;;12.10;6.70;;;6.00;99.90;;;;;;5056493;28;20468;-79
2022/02/15 07:32:18;;;;;;;11.10;7.13;;;6.00;99.90;;;;;;5057127;28;20469;-79
2022/02/15 07:35:04;;;;;;;6.30;5.20;;;6.00;99.90;;;;;;5058298;28;20458;-79
2022/02/15 07:37:49;;;;;;;7.37;6.40;;;6.00;99.90;;;;;;5116555;27;20424;-80
2022/02/15 07:40:34;;;;;;;9.37;6.87;;;5.90;99.90;;;;;;5114439;27;20435;-81
2022/02/15 07:43:18;;;;;;;8.23;6.37;;;5.90;99.90;;;;;;5108710;28;20467;-81
2022/02/15 07:46:03;;;;;;;9.93;7.03;;;6.10;99.90;;;;;;5101942;28;20450;-80
2022/02/15 07:48:49;;;;;;;13.03;7.77;;;6.10;99.90;;;;;;5093416;28;20395;-81
2022/02/15 07:51:34;;;;;;;9.10;6.50;;;6.00;99.90;;;;;;5092709;28;20406;-81
2022/02/15 07:54:19;;;;;;;14.63;7.67;;;6.10;99.90;;;;;;5095467;28;20427;-81
2022/02/15 07:57:05;;;;;;;12.47;7.27;;;6.10;99.90;;;;;;5103670;27;20429;-80
2022/02/15 07:59:50;;;;;;;8.73;7.30;;;6.10;99.90;;;;;;5107908;28;20398;-81
2022/02/15 08:02:35;;;;;;;8.77;7.90;;;6.10;99.90;;;;;;5110265;27;20427;-81
2022/02/15 08:05:20;;;;;;;8.60;6.60;;;6.20;99.90;;;;;;5090427;28;20491;-81
2022/02/15 08:08:05;;;;;;;10.63;7.63;;;6.20;99.90;;;;;;5102595;27;20518;-80
2022/02/15 08:10:49;;;;;;;14.60;8.00;;;6.20;99.90;;;;;;5111682;28;20714;-81
2022/02/15 08:13:34;;;;;;;15.20;9.30;;;6.30;99.90;;;;;;5059953;28;21083;-81
2022/02/15 08:16:21;;;;;;;13.20;8.90;;;6.20;99.90;;;;;;5065299;28;20190;-79
2022/02/15 08:19:06;;;;;;;12.53;8.23;;;6.30;99.90;;;;;;5063334;28;20928;-80
2022/02/15 08:21:50;;;;;;;9.77;7.63;;;6.30;99.90;;;;;;5061976;28;20492;-81
2022/02/15 08:24:36;;;;;;;11.67;7.20;;;6.30;99.90;;;;;;5054053;28;20448;-79
2022/02/15 08:27:20;;;;;;;13.97;9.00;;;6.50;99.90;;;;;;5065537;28;21277;-80
2022/02/15 08:30:06;;;;;;;8.70;7.83;;;6.50;99.90;;;;;;5058928;28;20424;-80
2022/02/15 08:32:51;;;;;;;15.60;9.20;;;6.50;99.90;;;;;;5066440;28;20993;-80
2022/02/15 08:35:36;;;;;;;7.77;7.00;;;6.70;99.90;;;;;;5063496;28;20813;-80
2022/02/15 08:38:21;;;;;;;14.47;8.20;;;6.80;99.90;;;;;;5049582;28;20480;-80
2022/02/15 08:41:05;;;;;;;9.90;7.70;;;6.70;99.90;;;;;;5057092;28;20400;-80
2022/02/15 08:43:50;;;;;;;13.37;7.60;;;6.70;99.90;;;;;;5066633;28;20419;-81
2022/02/15 08:46:35;;;;;;;12.80;6.83;;;6.70;99.90;;;;;;5109367;27;20466;-81
2022/02/15 08:49:19;;;;;;;6.10;5.60;;;6.80;99.90;;;;;;5093802;28;20445;-81
2022/02/15 08:52:06;;;;;;;11.43;8.47;;;6.90;99.90;;;;;;5108870;27;20664;-81
2022/02/15 08:54:51;;;;;;;8.07;6.43;;;7.00;99.90;;;;;;5106837;28;20432;-81
2022/02/15 08:57:37;;;;;;;6.50;5.13;;;7.00;99.90;;;;;;5103815;28;21087;-81
2022/02/15 09:00:21;;;;;;;9.30;5.93;;;7.00;99.90;;;;;;5094054;28;20451;-81
2022/02/15 09:03:06;;;;;;;9.63;7.13;;;7.10;99.90;;;;;;5090689;28;20479;-80
2022/02/15 09:05:51;;;;;;;9.50;5.80;;;7.10;99.90;;;;;;5108891;28;20511;-81
2022/02/15 09:08:36;;;;;;;7.53;6.67;;;7.30;99.90;;;;;;5106701;28;20504;-81
2022/02/15 09:11:21;;;;;;;8.20;6.00;;;7.30;99.90;;;;;;5117122;27;20817;-79
2022/02/15 09:14:06;;;;;;;9.23;5.57;;;7.40;99.90;;;;;;5110426;28;20415;-80
2022/02/15 09:16:50;;;;;;;6.60;6.00;;;7.50;99.90;;;;;;5105159;27;20514;-81
2022/02/15 09:19:36;;;;;;;7.23;5.33;;;7.50;99.90;;;;;;5115854;28;20466;-80
2022/02/15 09:22:20;;;;;;;8.03;6.07;;;7.70;99.90;;;;;;5112728;28;20454;-80
2022/02/15 09:25:06;;;;;;;5.43;4.80;;;7.60;99.90;;;;;;5106186;28;21097;-80
2022/02/15 09:27:50;;;;;;;7.93;5.50;;;7.70;99.90;;;;;;5097329;28;20455;-80
2022/02/15 09:30:35;;;;;;;7.43;5.83;;;7.80;99.90;;;;;;5113144;27;20420;-80
2022/02/15 09:33:22;;;;;;;10.63;6.10;;;7.80;99.90;;;;;;5102073;28;20435;-79
2022/02/15 09:36:07;;;;;;;6.83;4.73;;;7.90;99.90;;;;;;5105083;27;20431;-80
2022/02/15 09:38:52;;;;;;;6.43;4.70;;;8.20;99.90;;;;;;5104514;27;20526;-78
2022/02/15 09:41:38;;;;;;;5.10;4.40;;;8.00;99.90;;;;;;5120283;28;20484;-80
2022/02/15 09:44:23;;;;;;;7.57;4.73;;;7.90;99.90;;;;;;5118143;27;20429;-81
2022/02/15 09:47:08;;;;;;;5.50;4.37;;;8.20;99.90;;;;;;5102061;28;20451;-81
2022/02/15 09:49:54;;;;;;;4.77;4.37;;;8.10;99.90;;;;;;5093301;28;20447;-80
2022/02/15 09:52:45;;;;;;;4.47;3.97;;;8.10;99.90;;;;;;5105403;28;20987;-80
2022/02/15 09:55:30;;;;;;;5.40;4.00;;;8.00;99.90;;;;;;5074531;28;20416;-80
2022/02/15 09:58:15;;;;;;;3.77;3.47;;;8.10;99.90;;;;;;5103485;28;20189;-80
2022/02/15 10:01:01;;;;;;;4.80;3.90;;;8.00;99.90;;;;;;5101897;28;20507;-80
2022/02/15 10:03:49;;;;;;;4.87;3.43;;;8.20;99.90;;;;;;5108303;28;20471;-79
2022/02/15 10:06:35;;;;;;;3.60;3.30;;;8.60;99.90;;;;;;5104718;28;20450;-80
2022/02/15 10:09:24;;;;;;;3.00;2.80;;;8.80;99.90;;;;;;5129181;27;20416;-81
2022/02/15 10:12:11;;;;;;;6.13;3.47;;;8.70;99.90;;;;;;5100401;27;20435;-81
2022/02/15 10:14:56;;;;;;;6.17;3.13;;;8.80;99.90;;;;;;5095217;28;20752;-82
2022/02/15 10:17:44;;;;;;;2.90;2.70;;;8.80;99.90;;;;;;5105093;27;20972;-81
2022/02/15 10:20:28;;;;;;;5.63;2.93;;;8.50;99.90;;;;;;5098510;28;20535;-81
2022/02/15 10:23:22;;;;;;;2.77;2.57;;;8.80;99.90;;;;;;5074812;28;20501;-81
2022/02/15 10:26:08;;;;;;;3.00;2.70;;;8.80;99.90;;;;;;5084515;28;20477;-80
2022/02/15 10:28:53;;;;;;;3.57;3.27;;;8.90;99.90;;;;;;5087590;28;20437;-79
2022/02/15 10:31:39;;;;;;;2.27;2.07;;;9.00;99.90;;;;;;5102046;28;20973;-80
2022/02/15 10:34:25;;;;;;;2.53;2.33;;;9.10;99.90;;;;;;5107626;28;20415;-81
2022/02/15 10:37:10;;;;;;;4.00;2.90;;;9.20;99.90;;;;;;5095745;28;20457;-80
2022/02/15 10:39:57;;;;;;;3.53;3.00;;;9.20;99.90;;;;;;5102828;28;20431;-80
2022/02/15 10:42:42;;;;;;;3.20;3.00;;;8.70;99.90;;;;;;5105825;28;20949;-80
2022/02/15 10:45:27;;;;;;;4.53;3.00;;;9.00;99.90;;;;;;5088830;28;20489;-80
2022/02/15 10:48:13;;;;;;;5.65;3.40;;;9.00;99.90;;;;;;5086559;28;20423;-80
2022/02/15 10:50:58;;;;;;;9.33;3.40;;;9.10;99.90;;;;;;5089600;28;20181;-79
2022/02/15 10:53:42;;;;;;;3.80;2.70;;;8.90;99.90;;;;;;5104822;28;20455;-80
2022/02/15 10:56:31;;;;;;;3.20;2.90;;;8.70;99.90;;;;;;5087741;28;20434;-80
2022/02/15 10:59:19;;;;;;;3.73;2.87;;;8.90;99.90;;;;;;5093365;28;20482;-80
2022/02/15 11:02:04;;;;;;;3.33;2.73;;;9.00;99.90;;;;;;5113121;28;20476;-79
2022/02/15 11:04:51;;;;;;;3.30;3.00;;;9.00;99.90;;;;;;5111799;28;20527;-81
2022/02/15 11:07:38;;;;;;;4.67;3.57;;;9.00;99.90;;;;;;5090631;28;20470;-81
2022/02/15 11:10:30;;;;;;;3.20;2.37;;;9.10;99.90;;;;;;5086993;28;20471;-80
2022/02/15 11:13:16;;;;;;;7.47;3.27;;;8.90;99.90;;;;;;5105702;28;20423;-80
2022/02/15 11:16:03;;;;;;;3.13;2.83;;;8.70;99.90;;;;;;5096273;28;20423;-81
2022/02/15 11:18:50;;;;;;;5.80;3.40;;;8.70;99.90;;;;;;5107907;28;20434;-80
2022/02/15 11:21:35;;;;;;;4.03;3.30;;;8.90;99.90;;;;;;5108681;28;20581;-81
2022/02/15 11:24:19;;;;;;;4.23;3.30;;;8.70;99.90;;;;;;5093226;28;20462;-81
2022/02/15 11:27:14;;;;;;;3.00;2.70;;;8.80;99.90;;;;;;5105064;28;20801;-81
2022/02/15 11:30:00;;;;;;;4.37;3.67;;;8.90;99.90;;;;;;5088486;28;20532;-81
2022/02/15 11:33:07;;;;;;;3.10;2.80;;;8.90;99.90;;;;;;5050123;28;20944;-81
2022/02/15 11:35:55;;;;;;;4.93;3.10;;;8.80;99.90;;;;;;5057211;28;20511;-80
2022/02/15 11:38:51;;;;;;;4.33;3.23;;;8.70;99.90;;;;;;5068108;28;20932;-79
2022/02/15 11:41:46;;;;;;;3.40;3.07;;;8.90;99.90;;;;;;5066176;28;20433;-81
2022/02/15 11:44:54;;;;;;;5.10;3.87;;;9.00;99.90;;;;;;5082021;28;20443;-81
2022/02/15 11:47:44;;;;;;;4.50;3.30;;;9.10;99.90;;;;;;5041077;28;20561;-79
2022/02/15 11:50:48;;;;;;;3.63;3.00;;;8.90;99.90;;;;;;5042960;28;20905;-80
2022/02/15 11:53:33;;;;;;;4.70;3.93;;;8.60;99.90;;;;;;5037445;28;20981;-80
2022/02/15 11:56:37;;;;;;;4.93;3.30;;;8.60;99.90;;;;;;5040827;28;20434;-81
2022/02/15 11:59:24;;;;;;;5.67;3.93;;;8.60;99.90;;;;;;4978913;28;20452;-80
2022/02/15 12:02:10;;;;;;;4.80;4.40;;;8.60;99.90;;;;;;4982044;28;20432;-80
2022/02/15 12:04:57;;;;;;;4.40;3.47;;;8.60;99.90;;;;;;4966733;28;21094;-80
2022/02/15 12:07:43;;;;;;;4.20;3.80;;;8.70;99.90;;;;;;4979315;28;20492;-80
2022/02/15 12:10:43;;;;;;;6.00;4.20;;;8.70;99.90;;;;;;4970568;28;20514;-80
2022/02/15 12:13:34;;;;;;;3.10;2.80;;;8.60;99.90;;;;;;4979781;28;20493;-80
2022/02/15 12:16:18;;;;;;;6.82;4.60;;;8.70;99.90;;;;;;4976125;28;20453;-80
2022/02/15 12:19:04;;;;;;;5.97;4.47;;;8.60;99.90;;;;;;4982108;28;20630;-80
2022/02/15 12:21:49;;;;;;;4.80;3.50;;;8.90;99.90;;;;;;4978770;28;20439;-81
2022/02/15 12:24:35;;;;;;;4.10;3.23;;;8.90;99.90;;;;;;4999923;28;20427;-80
2022/02/15 12:27:21;;;;;;;4.30;3.40;;;8.80;99.90;;;;;;5004078;28;20447;-81
2022/02/15 12:30:25;;;;;;;3.33;3.00;;;8.80;99.90;;;;;;5078094;27;20447;-80
2022/02/15 12:33:10;;;;;;;4.73;4.33;;;9.00;99.90;;;;;;5039451;28;20438;-79
2022/02/15 12:36:15;;;;;;;4.10;3.70;;;9.00;99.90;;;;;;5057456;28;20425;-80
2022/02/15 12:38:59;;;;;;;5.17;3.60;;;9.10;99.90;;;;;;4993000;28;20468;-80
2022/02/15 12:41:47;;;;;;;5.60;3.23;;;8.90;99.90;;;;;;4971965;28;20444;-80
2022/02/15 12:44:31;;;;;;;7.13;2.93;;;8.90;99.90;;;;;;4988907;28;20757;-80
2022/02/15 12:47:20;;;;;;;4.57;3.57;;;8.90;99.90;;;;;;4999274;28;20544;-79
2022/02/15 12:50:07;;;;;;;2.47;2.27;;;8.80;99.90;;;;;;4970847;28;20448;-80
2022/02/15 12:52:54;;;;;;;4.77;2.97;;;8.30;99.90;;;;;;4973746;28;20436;-79
2022/02/15 12:55:39;;;;;;;3.73;2.53;;;8.00;99.90;;;;;;4973993;28;20441;-80
2022/02/15 12:58:28;;;;;;;4.10;2.80;;;7.80;99.90;;;;;;4989250;28;20484;-79
2022/02/15 13:01:16;;;;;;;3.20;2.77;;;8.20;99.90;;;;;;4981784;28;20179;-80
2022/02/15 13:04:00;;;;;;;3.90;2.65;;;8.30;99.90;;;;;;5008485;28;20621;-80
2022/02/15 13:06:53;;;;;;;3.20;2.33;;;8.70;99.90;;;;;;5003079;28;20200;-79
2022/02/15 13:09:45;;;;;;;3.00;2.70;;;8.90;99.90;;;;;;4992410;28;20417;-79
2022/02/15 13:12:33;;;;;;;2.57;2.37;;;9.30;99.90;;;;;;5035453;28;20464;-79
2022/02/15 13:15:20;;;;;;;2.30;2.10;;;9.70;99.90;;;;;;5012531;28;20429;-78
2022/02/15 13:18:07;;;;;;;2.37;2.23;;;10.60;99.90;;;;;;5008604;28;20510;-79
2022/02/15 13:20:52;;;;;;;2.27;2.07;;;10.90;99.90;;;;;;5003363;28;20419;-79
2022/02/15 13:23:38;;;;;;;2.90;2.70;;;10.70;99.90;;;;;;4971889;28;20611;-80
2022/02/15 13:26:39;;;;;;;2.80;2.60;;;10.10;99.90;;;;;;4948972;29;21042;-79
2022/02/15 13:29:27;;;;;;;2.10;2.00;;;11.40;99.90;;;;;;4973576;28;20544;-79
2022/02/15 13:32:11;;;;;;;2.50;2.30;;;12.10;99.90;;;;;;4961168;28;20754;-79
2022/02/15 13:34:56;;;;;;;1.90;1.80;;;14.00;99.90;;;;;;5000434;28;20534;-80
2022/02/15 13:38:05;;;;;;;2.07;1.97;;;14.60;99.90;;;;;;4978330;28;21036;-78
2022/02/15 13:40:49;;;;;;;1.90;1.77;;;16.10;99.90;;;;;;4963104;28;20953;-80
2022/02/15 13:43:34;;;;;;;3.17;1.70;;;15.60;99.90;;;;;;4971948;28;20464;-80
2022/02/15 13:46:23;;;;;;;1.73;1.63;;;15.30;99.90;;;;;;4970351;28;20981;-80
2022/02/15 13:49:07;;;;;;;1.97;1.87;;;15.10;99.90;;;;;;4985264;28;20440;-80
2022/02/15 13:51:53;;;;;;;3.50;1.80;;;14.70;99.90;;;;;;5006777;28;20447;-79
2022/02/15 13:54:37;;;;;;;2.30;2.20;;;14.70;99.90;;;;;;5035275;28;20441;-79
2022/02/15 13:57:22;;;;;;;2.20;2.10;;;14.40;99.90;;;;;;5046064;28;20488;-80
2022/02/15 14:00:08;;;;;;;1.70;1.60;;;14.50;99.90;;;;;;5036484;28;20484;-82
2022/02/15 14:02:54;;;;;;;3.60;1.90;;;14.80;99.90;;;;;;5063312;28;20427;-81
2022/02/15 14:05:39;;;;;;;2.37;2.00;;;14.10;99.90;;;;;;5057685;28;20508;-81
2022/02/15 14:08:23;;;;;;;2.80;2.27;;;12.70;99.90;;;;;;5041425;28;20461;-81
2022/02/15 14:11:08;;;;;;;1.87;1.73;;;12.40;99.90;;;;;;5057480;28;20434;-80
2022/02/15 14:13:53;;;;;;;3.63;1.80;;;12.00;99.90;;;;;;5041295;28;20421;-81
2022/02/15 14:16:37;;;;;;;5.13;2.50;;;13.00;99.90;;;;;;5056213;28;20463;-81
2022/02/15 14:19:22;;;;;;;10.17;3.20;;;13.00;99.90;;;;;;5069362;28;20543;-81
2022/02/15 14:22:06;;;;;;;3.50;2.50;;;13.10;99.90;;;;;;5072685;28;20525;-81
2022/02/15 14:24:51;;;;;;;2.30;2.10;;;14.40;99.90;;;;;;5066289;28;20472;-80
2022/02/15 14:27:36;;;;;;;2.27;2.07;;;15.40;99.90;;;;;;5074425;28;20491;-81
2022/02/15 14:30:22;;;;;;;3.83;3.43;;;15.70;99.90;;;;;;5077755;28;20485;-80
2022/02/15 14:33:07;;;;;;;2.77;2.57;;;16.30;99.90;;;;;;5112369;27;20852;-79
2022/02/15 14:35:52;;;;;;;2.40;2.20;;;15.20;99.90;;;;;;5118483;27;20459;-77
2022/02/15 14:38:37;;;;;;;2.20;2.10;;;15.10;99.90;;;;;;5121397;27;20421;-79
2022/02/15 14:41:22;;;;;;;2.80;2.60;;;15.20;99.90;;;;;;5117119;27;20450;-79
2022/02/15 14:44:07;;;;;;;2.60;2.40;;;14.70;99.90;;;;;;5116607;27;20419;-81